VAM Template | Vabird

Vabird! Vabird Marcello Mazzieri




 INFORMACIÓN METAR y TAF
METAR FOR GMMH
ADDS - METARS form results

(0526 UTC 21 October 2020)
Data provider http://aviationweather.gov/metar/data/
 
Forecast for: GMMH (DAKHLA AIRPORT , MA)
Text: TAF GMMH 210500Z 2106/2212 02010KT 8000 BKN010
Forecast period: 0600 UTC 21 October 2020 to 1200 UTC 22 October 2020
Forecast type: FROM: standard forecast or significant change
Winds: from the NNE (20 degrees) at 12 MPH (10 knots; 5.1 m/s)
Visibility: 5 miles (8 km)
Ceiling: 1000 feet AGL
Clouds: broken clouds at 1000 feet AGL
Weather: no significant weather forecast for this period
Text: PROB40 2106/2109 3000 BR
Forecast period: 0600 to 0900 UTC 21 October 2020
Forecast type: PROBABLE: 40 percent likelihood of the following during this time
Visibility: 1.86 miles (2.99 km)
Ceiling: unknown
Clouds: missing
Weather: BR  (mist)

 MAPA DE AEROPUERTO

 INFORMACIÓN DE PISTA